Airfield :
LOGIN :

Register | Disclaimer

   EN    FR    IT 

 










Legend :    VFR   Marginal VFR   IFR   Intensive IFR   Very Intensive IFR
Visi :
Ceiling :
>= 8 km
>= 3000ft
5 to 8 km
1000 to 3000 ft
1500m to 5 km
500 to 1000 ft
800 to 1500m
200 to 500 ft
< 800m
< 200 ft
Symbols :   Thunderstorms  Fog  Heavy snow  Heavy precipitations  Wind > 20 kt
SIGMETs :     Misc.  Thunderstorms  Icing  Turbulence  Mountain Waves  Volcanic Ashes







- Airport Elevation : 622 ft
- IATA code : BRS
- Download approach charts


EGGD - Bristol Int.

EXPIRED METARs :
  • 241420Z AUTO 26011KT 9999 OVC007 16/15 Q1014
  • 241350Z AUTO 27011KT 9999 BKN007 OVC018 16/15 Q1014
  • 241320Z 26011KT 9999 BKN008 17/15 Q1014
  • 241250Z 24011KT 9999 BKN009 17/15 Q1015
  • 241220Z 24012KT 9999 BKN010 17/15 Q1015
  • 241150Z 25010KT 9999 FEW005 BKN007 16/15 Q1015

TAF AMD TAF EGGD
Valid from the 24 at 14:00 until the 25 at 12:00 UTC


241439Z 2414/2512 25012KT 9999 BKN009
TEMPO 2414/2416 6000 -RA
TEMPO 2416/2421 3000 -RADZ BKN003
BECMG 2421/2424 FEW008
BECMG 2503/2506 3000 -RADZ BKN003
PROB30 2505/2509 0200 FG BKN001
BECMG 2508/2511 9999 NSW SCT030
TEMPO 2510/2512 27015G25KT
ATIS : +44 1275 473 666
No reported NOTAMs for that airfield.



MET'MAP, your aeronautical weather chart ! - Copyright ORBIFLY December 2007 - Disclaimer

ORBIFLY MET'MAP TEAM :

Programming & Development : Alexandra Zaïnal
Concept & Development : Baudouin d'Aumeries
Co-Development & Prog : Marc-Olivier Méhu
Technical & hardware support : Manuel Goepfert

Contact : metmap@orbifly.com




SOURCES & CREDITS :

   NOAA